Time;durP1;ratioP1;P1;durP2;ratioP2;P2;SDS_P1;SDS_P2;PMS_P1;PMS_P2;Temp;Humidity;BMP_temperature;BMP_pressure;BME280_temperature;BME280_humidity;BME280_pressure;Samples;Min_cycle;Max_cycle;Signal;HPM_P1;HPM_P2
2023/10/21 00:01:39;;;;;;;21.40;6.90;;;;;;;23.10;59.66;100673.42;106452;1274;25371;-60
2023/10/21 00:04:06;;;;;;;20.50;6.70;;;;;;;23.10;59.66;100665.85;106765;1264;25579;-60
2023/10/21 00:06:34;;;;;;;20.50;7.20;;;;;;;23.10;59.51;100660.67;106776;1260;25469;-61
2023/10/21 00:09:01;;;;;;;27.70;8.60;;;;;;;23.10;59.49;100656.43;106357;1277;25386;-61
2023/10/21 00:11:28;;;;;;;28.30;7.70;;;;;;;23.10;59.46;100650.98;106709;1261;25819;-61
2023/10/21 00:13:57;;;;;;;22.70;7.20;;;;;;;23.09;59.37;100647.14;106735;1264;25344;-61
2023/10/21 00:16:24;;;;;;;21.20;7.60;;;;;;;23.08;59.18;100645.09;106734;1271;25542;-60
2023/10/21 00:18:51;;;;;;;23.20;7.40;;;;;;;23.08;59.15;100644.42;106700;1267;25372;-60
2023/10/21 00:21:18;;;;;;;24.80;8.60;;;;;;;23.07;59.04;100643.02;106630;1267;25503;-61
2023/10/21 00:23:45;;;;;;;19.90;7.00;;;;;;;23.07;58.99;100641.31;106482;1267;25344;-60
2023/10/21 00:26:12;;;;;;;23.80;7.00;;;;;;;23.06;58.99;100638.58;106366;1258;25426;-60
2023/10/21 00:28:40;;;;;;;14.70;6.10;;;;;;;23.05;58.97;100628.50;105970;1261;402611;-61
2023/10/21 00:31:07;;;;;;;20.30;7.30;;;;;;;23.05;59.01;100627.98;106352;1257;22555;-61
2023/10/21 00:33:35;;;;;;;20.40;6.40;;;;;;;23.04;59.00;100630.86;106371;1267;25347;-61
2023/10/21 00:36:03;;;;;;;19.90;6.90;;;;;;;23.04;59.11;100633.93;106474;1262;25498;-61
2023/10/21 00:38:30;;;;;;;17.10;6.60;;;;;;;23.03;59.17;100631.85;106431;1262;25435;-60
2023/10/21 00:40:57;;;;;;;19.00;6.50;;;;;;;23.02;59.17;100635.49;106514;1264;24229;-61
2023/10/21 00:43:42;;;;;;;16.50;6.60;;;;;;;23.01;59.22;100631.81;106482;1264;25348;-61
2023/10/21 00:46:15;;;;;;;21.20;7.10;;;;;;;23.00;59.19;100631.56;106837;1270;25396;-61
2023/10/21 00:48:43;;;;;;;20.50;7.00;;;;;;;23.01;59.19;100634.71;106485;1264;24197;-62
2023/10/21 00:51:10;;;;;;;22.40;6.70;;;;;;;22.98;59.10;100626.25;106637;1273;25549;-61
2023/10/21 00:53:38;;;;;;;21.70;7.90;;;;;;;22.86;59.14;100627.12;106705;1260;25365;-61
2023/10/21 00:56:08;;;;;;;28.10;7.90;;;;;;;22.76;59.16;100621.73;106791;1271;25395;-61
2023/10/21 00:58:35;;;;;;;28.20;7.80;;;;;;;22.72;58.80;100616.70;106722;1263;25448;-62
2023/10/21 01:01:08;;;;;;;29.50;8.00;;;;;;;22.71;58.12;100615.23;106533;1267;24207;-62
2023/10/21 01:03:35;;;;;;;22.60;7.40;;;;;;;22.69;57.53;100611.44;106269;1269;24505;-61
2023/10/21 01:06:03;;;;;;;31.00;8.30;;;;;;;22.69;57.13;100604.59;106212;1277;24216;-61
2023/10/21 01:08:41;;;;;;;41.00;9.20;;;;;;;22.68;56.59;100605.70;106292;1273;25469;-61
2023/10/21 01:11:10;;;;;;;23.10;8.10;;;;;;;22.68;56.31;100604.27;106094;1274;24419;-61
2023/10/21 01:13:39;;;;;;;20.90;7.20;;;;;;;22.68;56.20;100607.64;106324;1262;22534;-62
2023/10/21 01:16:05;;;;;;;25.50;7.30;;;;;;;22.69;56.10;100610.77;106296;1261;25372;-62
2023/10/21 01:18:34;;;;;;;19.50;7.30;;;;;;;22.69;55.86;100612.16;106259;1264;25406;-61
2023/10/21 01:21:02;;;;;;;14.60;6.10;;;;;;;22.70;55.67;100614.56;106532;1264;22650;-61
2023/10/21 01:23:30;;;;;;;21.20;6.80;;;;;;;22.77;55.34;100616.34;106489;1266;24384;-61
2023/10/21 01:25:57;;;;;;;22.80;6.40;;;;;;;22.85;55.16;100617.13;106620;1264;25347;-61
2023/10/21 01:28:25;;;;;;;17.40;6.70;;;;;;;22.84;55.60;100614.39;106717;1260;24028;-61
2023/10/21 01:30:52;;;;;;;12.50;6.20;;;;;;;22.80;55.93;100615.23;106694;1257;25376;-61
2023/10/21 01:33:19;;;;;;;15.10;5.40;;;;;;;22.89;56.10;100618.80;106421;1264;25246;-61
2023/10/21 01:35:46;;;;;;;17.00;6.50;;;;;;;22.75;56.82;100617.86;106442;1264;25344;-61
2023/10/21 01:38:15;;;;;;;18.20;6.80;;;;;;;22.74;57.21;100616.19;106384;1264;25599;-61
2023/10/21 01:40:42;;;;;;;14.80;6.90;;;;;;;22.75;57.61;100619.14;106388;1260;25352;-61
2023/10/21 01:43:09;;;;;;;17.70;6.40;;;;;;;22.75;57.87;100614.91;106513;1268;25347;-61
2023/10/21 01:45:37;;;;;;;18.60;5.80;;;;;;;22.76;58.26;100615.90;106823;1261;25364;-61
2023/10/21 01:48:05;;;;;;;19.30;7.40;;;;;;;22.76;58.32;100616.22;106709;1270;23252;-61
2023/10/21 01:50:32;;;;;;;20.30;8.30;;;;;;;22.76;58.25;100616.75;106440;1260;22504;-61
2023/10/21 01:52:59;;;;;;;25.90;7.00;;;;;;;22.76;57.94;100620.83;106648;1260;25350;-61
2023/10/21 01:55:26;;;;;;;19.70;6.80;;;;;;;22.75;57.67;100619.48;106566;1267;25294;-61
2023/10/21 01:57:53;;;;;;;22.10;7.50;;;;;;;22.75;57.17;100620.73;106705;1264;25357;-62
2023/10/21 02:00:20;;;;;;;22.40;7.70;;;;;;;22.74;56.56;100618.31;106360;1267;25357;-61
2023/10/21 02:02:50;;;;;;;25.20;7.50;;;;;;;22.73;55.70;100618.93;106580;1259;22563;-61
2023/10/21 02:05:19;;;;;;;19.90;6.30;;;;;;;22.72;55.10;100618.29;106396;1276;24217;-61
2023/10/21 02:07:46;;;;;;;21.30;7.20;;;;;;;22.71;54.72;100622.91;106709;1261;25389;-62
2023/10/21 02:10:13;;;;;;;26.10;8.10;;;;;;;22.70;54.68;100620.02;106802;1267;22666;-61
2023/10/21 02:12:40;;;;;;;24.20;7.80;;;;;;;22.67;54.83;100625.22;106759;1259;25462;-61
2023/10/21 02:15:17;;;;;;;22.40;8.20;;;;;;;22.65;54.91;100625.20;106640;1264;25382;-62
2023/10/21 02:17:44;;;;;;;19.70;7.70;;;;;;;22.68;54.90;100622.33;106411;1264;25387;-63
2023/10/21 02:20:12;;;;;;;21.70;6.50;;;;;;;22.65;54.71;100621.73;106638;1259;24241;-61
2023/10/21 02:22:39;;;;;;;18.00;6.70;;;;;;;22.64;54.73;100626.26;106278;1264;25344;-61
2023/10/21 02:25:08;;;;;;;17.50;7.00;;;;;;;22.63;54.64;100627.77;106348;1261;25378;-61
2023/10/21 02:27:41;;;;;;;21.30;6.70;;;;;;;22.62;54.53;100630.15;106147;1277;25424;-61
2023/10/21 02:30:10;;;;;;;17.70;6.80;;;;;;;22.58;54.14;100626.33;106438;1263;25363;-61
2023/10/21 02:32:37;;;;;;;25.50;7.80;;;;;;;22.47;53.99;100631.40;106373;1273;24240;-61
2023/10/21 02:35:05;;;;;;;21.40;7.00;;;;;;;22.45;53.68;100635.29;106305;1266;25366;-61
2023/10/21 02:37:32;;;;;;;22.90;7.30;;;;;;;22.44;53.89;100635.31;106219;1262;22539;-61
2023/10/21 02:39:59;;;;;;;24.10;8.10;;;;;;;22.45;54.42;100638.99;106014;1263;24254;-61
2023/10/21 02:42:26;;;;;;;21.20;7.30;;;;;;;22.48;55.05;100637.88;105992;1265;24356;-62
2023/10/21 02:44:53;;;;;;;20.90;7.80;;;;;;;22.45;55.53;100633.11;106144;1267;22537;-61
2023/10/21 02:47:20;;;;;;;23.40;7.90;;;;;;;22.44;55.96;100636.25;106133;1276;25470;-61
2023/10/21 02:49:47;;;;;;;17.30;6.80;;;;;;;22.44;56.42;100636.05;106058;1279;25497;-61
2023/10/21 02:52:14;;;;;;;21.00;7.90;;;;;;;22.44;56.93;100645.42;106031;1265;25379;-60
2023/10/21 02:54:41;;;;;;;24.20;7.60;;;;;;;22.44;57.45;100644.37;106393;1267;25450;-61
2023/10/21 02:57:08;;;;;;;21.60;7.00;;;;;;;22.49;57.40;100644.72;106532;1263;25351;-60
2023/10/21 02:59:36;;;;;;;17.40;7.40;;;;;;;22.57;57.03;100646.05;106351;1264;25428;-61
2023/10/21 03:02:03;;;;;;;16.20;7.00;;;;;;;22.58;57.14;100643.02;106363;1267;25337;-61
2023/10/21 03:04:30;;;;;;;18.80;6.10;;;;;;;22.60;57.19;100646.23;106697;1262;22977;-61
2023/10/21 03:06:57;;;;;;;19.40;7.10;;;;;;;22.55;57.29;100644.99;106654;1263;25375;-61
2023/10/21 03:09:25;;;;;;;13.80;6.40;;;;;;;22.50;57.46;100646.92;106638;1259;25376;-61
2023/10/21 03:11:53;;;;;;;16.70;6.70;;;;;;;22.56;57.19;100645.41;106708;1262;25348;-61
2023/10/21 03:14:21;;;;;;;17.60;6.80;;;;;;;22.76;56.60;100649.31;106779;1261;22524;-61
2023/10/21 03:16:48;;;;;;;12.60;6.30;;;;;;;22.77;56.70;100655.04;106791;1257;25344;-61
2023/10/21 03:19:15;;;;;;;11.90;5.90;;;;;;;22.64;57.19;100653.36;106678;1265;22534;-60
2023/10/21 03:21:44;;;;;;;18.60;6.80;;;;;;;22.62;57.55;100653.96;106624;1257;25347;-61
2023/10/21 03:24:12;;;;;;;19.40;5.80;;;;;;;22.63;57.82;100654.79;106798;1265;25347;-61
2023/10/21 03:26:39;;;;;;;15.90;6.20;;;;;;;22.69;57.87;100659.92;106163;1272;25507;-61
2023/10/21 03:29:08;;;;;;;14.60;6.40;;;;;;;22.72;58.06;100663.60;106748;1259;22541;-61
2023/10/21 03:31:37;;;;;;;15.00;7.50;;;;;;;22.73;58.39;100663.66;106754;1262;23426;-61
2023/10/21 03:34:04;;;;;;;12.00;6.20;;;;;;;22.74;58.40;100656.35;106701;1270;25507;-61
2023/10/21 03:36:31;;;;;;;14.20;5.70;;;;;;;22.74;58.33;100658.09;106822;1262;25375;-61
2023/10/21 03:38:58;;;;;;;14.80;5.80;;;;;;;22.79;58.13;100657.39;106506;1262;25389;-61
2023/10/21 03:41:26;;;;;;;17.30;6.00;;;;;;;22.86;57.97;100660.89;106492;1263;25494;-61
2023/10/21 03:43:53;;;;;;;15.10;6.00;;;;;;;22.86;58.01;100661.95;106711;1262;25355;-60
2023/10/21 03:46:21;;;;;;;14.00;5.90;;;;;;;22.80;58.33;100659.77;106716;1257;25373;-61
2023/10/21 03:48:48;;;;;;;18.90;6.70;;;;;;;22.81;58.41;100660.74;106822;1262;25386;-61
2023/10/21 03:51:15;;;;;;;17.20;7.30;;;;;;;22.76;58.70;100660.42;106706;1262;25664;-61
2023/10/21 03:53:46;;;;;;;20.50;6.30;;;;;;;22.77;58.83;100662.52;106736;1260;25386;-61
2023/10/21 03:56:13;;;;;;;16.90;5.80;;;;;;;22.77;58.82;100663.71;106859;1262;25410;-61
2023/10/21 03:58:40;;;;;;;12.90;6.40;;;;;;;22.76;58.81;100660.23;106292;1272;25460;-61
2023/10/21 04:01:07;;;;;;;15.50;6.90;;;;;;;22.76;58.59;100662.20;106705;1259;27134;-61
2023/10/21 04:03:35;;;;;;;16.60;6.40;;;;;;;22.74;58.41;100663.21;106629;1262;25414;-61
2023/10/21 04:06:02;;;;;;;21.10;6.80;;;;;;;22.73;58.21;100664.40;106692;1270;23907;-61
2023/10/21 04:08:30;;;;;;;13.50;5.70;;;;;;;22.71;58.10;100661.67;106755;1273;25386;-61
2023/10/21 04:10:56;;;;;;;15.10;6.00;;;;;;;22.70;58.13;100664.80;106422;1267;25469;-61
2023/10/21 04:13:24;;;;;;;16.00;5.90;;;;;;;22.73;57.98;100665.59;106587;1261;24213;-61
2023/10/21 04:15:51;;;;;;;14.00;5.90;;;;;;;22.76;57.85;100667.02;106386;1262;25564;-60
2023/10/21 04:18:19;;;;;;;23.20;6.60;;;;;;;22.65;58.02;100670.79;106314;1262;25391;-61
2023/10/21 04:20:46;;;;;;;12.00;5.60;;;;;;;22.63;58.11;100673.76;106305;1260;25532;-61
2023/10/21 04:23:13;;;;;;;16.30;6.50;;;;;;;22.62;57.85;100676.08;106504;1258;24214;-61
2023/10/21 04:25:40;;;;;;;17.20;5.90;;;;;;;22.61;57.67;100681.66;106435;1261;25496;-61
2023/10/21 04:28:07;;;;;;;12.70;5.40;;;;;;;22.59;57.45;100680.06;106657;1266;24215;-61
2023/10/21 04:30:35;;;;;;;16.60;6.10;;;;;;;22.65;57.33;100684.72;106783;1260;25354;-61
2023/10/21 04:33:02;;;;;;;18.40;6.30;;;;;;;22.72;56.81;100684.42;106725;1262;25358;-61
2023/10/21 04:35:29;;;;;;;14.50;5.70;;;;;;;22.72;56.61;100683.92;106410;1271;22533;-61
2023/10/21 04:37:57;;;;;;;15.80;5.80;;;;;;;22.72;56.46;100682.83;106721;1257;25427;-61
2023/10/21 04:40:24;;;;;;;11.60;5.60;;;;;;;22.73;55.94;100688.80;106868;1259;23176;-61
2023/10/21 04:42:51;;;;;;;14.90;5.60;;;;;;;22.72;55.50;100693.45;106693;1261;25437;-61
2023/10/21 04:45:18;;;;;;;15.40;5.60;;;;;;;22.63;55.16;100693.37;106808;1259;25394;-61
2023/10/21 04:47:45;;;;;;;12.40;5.40;;;;;;;22.56;55.02;100697.39;106748;1258;22620;-62
2023/10/21 04:50:12;;;;;;;19.50;6.10;;;;;;;22.57;55.11;100699.41;106688;1258;22530;-61
2023/10/21 04:52:40;;;;;;;16.50;6.00;;;;;;;22.50;55.57;100700.95;106713;1262;25420;-61
2023/10/21 04:55:07;;;;;;;18.00;6.40;;;;;;;22.51;55.74;100705.88;106798;1259;25347;-61
2023/10/21 04:57:34;;;;;;;16.00;6.70;;;;;;;22.56;55.55;100708.38;106697;1260;22537;-61
2023/10/21 05:00:03;;;;;;;21.60;6.40;;;;;;;22.57;55.33;100712.34;106761;1261;25358;-61
2023/10/21 05:02:30;;;;;;;14.50;5.70;;;;;;;22.57;55.14;100711.09;106820;1257;22561;-61
2023/10/21 05:04:57;;;;;;;12.00;5.90;;;;;;;22.58;54.87;100712.30;106783;1262;25349;-61
2023/10/21 05:07:24;;;;;;;13.80;5.10;;;;;;;22.59;54.46;100721.58;106673;1262;25358;-61
2023/10/21 05:09:51;;;;;;;14.20;6.40;;;;;;;22.59;54.06;100725.63;106706;1259;25535;-61
2023/10/21 05:12:19;;;;;;;17.80;6.30;;;;;;;22.57;53.67;100737.48;106672;1259;25355;-61
2023/10/21 05:14:46;;;;;;;13.20;5.20;;;;;;;22.53;53.63;100741.63;106693;1262;25962;-62
2023/10/21 05:17:13;;;;;;;9.50;4.70;;;;;;;22.53;53.43;100744.61;106778;1259;22557;-61
2023/10/21 05:19:40;;;;;;;10.80;4.80;;;;;;;22.61;53.15;100748.67;106761;1262;25394;-61
2023/10/21 05:22:07;;;;;;;13.20;5.40;;;;;;;22.74;52.79;100749.88;106724;1261;25368;-61
2023/10/21 05:24:34;;;;;;;13.90;5.20;;;;;;;22.77;52.63;100753.06;106733;1262;25347;-61
2023/10/21 05:27:02;;;;;;;11.00;5.50;;;;;;;22.78;52.53;100754.41;106744;1257;25391;-61
2023/10/21 05:29:30;;;;;;;9.60;4.40;;;;;;;22.79;52.30;100755.39;106666;1261;25366;-61
2023/10/21 05:31:57;;;;;;;10.70;4.80;;;;;;;22.80;52.28;100761.16;106545;1264;24197;-61
2023/10/21 05:34:24;;;;;;;10.60;4.70;;;;;;;22.76;52.26;100763.36;106444;1267;24222;-61
2023/10/21 05:36:51;;;;;;;10.20;4.90;;;;;;;22.76;52.17;100771.48;106650;1259;25498;-62
2023/10/21 05:39:18;;;;;;;7.50;3.90;;;;;;;22.82;52.04;100774.08;106730;1262;25383;-62
2023/10/21 05:41:46;;;;;;;10.70;4.50;;;;;;;22.82;51.93;100775.29;106862;1262;25428;-61
2023/10/21 05:44:13;;;;;;;11.10;4.90;;;;;;;22.61;52.51;100775.02;106793;1265;25358;-62
2023/10/21 05:46:40;;;;;;;11.00;5.90;;;;;;;22.57;52.72;100779.18;106670;1259;25395;-61
2023/10/21 05:49:07;;;;;;;12.50;5.50;;;;;;;22.57;52.68;100785.70;106356;1272;25358;-62
2023/10/21 05:51:34;;;;;;;7.90;4.90;;;;;;;22.61;52.68;100789.70;106392;1276;25371;-61
2023/10/21 05:54:01;;;;;;;16.40;5.60;;;;;;;22.65;52.58;100788.88;106288;1262;25536;-62
2023/10/21 05:56:28;;;;;;;9.50;5.30;;;;;;;22.71;52.51;100790.64;106374;1262;25365;-62
2023/10/21 05:58:55;;;;;;;10.10;5.80;;;;;;;22.74;52.41;100792.50;106597;1258;22592;-62
2023/10/21 06:01:22;;;;;;;17.00;6.10;;;;;;;22.77;52.18;100789.09;106409;1263;25354;-62
2023/10/21 06:03:49;;;;;;;14.40;5.80;;;;;;;22.80;52.17;100791.74;106564;1261;24361;-61
2023/10/21 06:06:17;;;;;;;10.60;5.10;;;;;;;22.83;52.07;100793.07;106769;1271;25508;-61
2023/10/21 06:08:44;;;;;;;17.90;6.20;;;;;;;22.88;52.04;100796.45;106694;1259;25395;-62
2023/10/21 06:11:12;;;;;;;12.30;5.30;;;;;;;22.93;51.89;100798.37;106738;1261;24187;-62
2023/10/21 06:13:39;;;;;;;10.40;5.30;;;;;;;22.97;51.90;100800.72;106496;1263;25358;-61
2023/10/21 06:16:06;;;;;;;10.60;4.90;;;;;;;23.02;51.78;100802.16;106433;1276;25507;-63
2023/10/21 06:18:33;;;;;;;13.10;5.60;;;;;;;23.06;51.67;100794.58;106689;1257;24260;-61
2023/10/21 06:21:00;;;;;;;11.00;4.90;;;;;;;23.10;51.57;100791.27;106704;1262;25376;-61
2023/10/21 06:23:28;;;;;;;11.30;4.70;;;;;;;23.14;51.29;100789.06;106715;1262;25465;-61
2023/10/21 06:25:55;;;;;;;11.30;5.20;;;;;;;23.17;51.14;100792.02;106722;1259;25424;-62
2023/10/21 06:28:23;;;;;;;10.80;4.90;;;;;;;23.19;51.01;100793.42;106419;1261;25396;-62
2023/10/21 06:30:50;;;;;;;6.70;4.70;;;;;;;23.27;50.62;100794.64;106870;1259;25497;-62
2023/10/21 06:33:17;;;;;;;8.40;4.40;;;;;;;23.30;50.40;100800.05;106739;1262;25386;-62
2023/10/21 06:35:45;;;;;;;8.00;4.60;;;;;;;23.35;50.22;100800.24;106693;1260;25432;-63
2023/10/21 06:38:12;;;;;;;12.40;4.40;;;;;;;23.40;50.11;100804.46;106303;1265;25423;-62
2023/10/21 06:40:39;;;;;;;13.60;4.10;;;;;;;23.39;49.97;100801.67;106702;1262;25357;-62
2023/10/21 06:43:25;;;;;;;11.30;5.00;;;;;;;23.45;49.74;100809.35;106593;1272;25344;-62
2023/10/21 06:45:52;;;;;;;10.40;4.40;;;;;;;23.52;49.68;100802.52;106671;1262;25391;-62
2023/10/21 06:48:19;;;;;;;11.70;5.00;;;;;;;23.57;49.54;100801.45;106797;1262;25382;-62
2023/10/21 06:50:46;;;;;;;11.00;4.80;;;;;;;23.60;49.42;100799.27;106741;1268;25375;-63
2023/10/21 06:53:14;;;;;;;11.60;4.50;;;;;;;23.64;49.30;100801.05;106664;1261;22548;-62
2023/10/21 06:55:44;;;;;;;11.10;4.80;;;;;;;23.67;49.25;100801.52;106738;1259;25358;-62
2023/10/21 06:58:11;;;;;;;8.50;4.60;;;;;;;23.70;49.01;100800.58;106699;1262;25432;-62
2023/10/21 07:00:38;;;;;;;8.50;4.20;;;;;;;23.73;48.92;100801.79;106725;1259;25366;-63
2023/10/21 07:03:05;;;;;;;10.70;4.00;;;;;;;23.77;48.97;100805.88;106691;1259;24287;-63
2023/10/21 07:05:33;;;;;;;9.40;4.10;;;;;;;23.82;48.80;100808.75;106721;1259;24241;-62
2023/10/21 07:08:01;;;;;;;10.40;4.20;;;;;;;23.88;48.53;100805.27;106448;1260;22542;-62
2023/10/21 07:10:30;;;;;;;8.40;4.40;;;;;;;23.93;48.21;100803.05;106577;1264;25376;-62
2023/10/21 07:12:58;;;;;;;11.80;4.80;;;;;;;23.99;47.94;100805.11;106736;1260;25386;-62
2023/10/21 07:15:27;;;;;;;8.20;4.00;;;;;;;24.04;47.55;100807.94;106540;1260;25370;-62
2023/10/21 07:17:56;;;;;;;13.50;5.30;;;;;;;24.03;47.06;100809.77;106790;1258;24482;-63
2023/10/21 07:20:25;;;;;;;15.70;6.20;;;;;;;23.96;47.51;100814.86;106723;1262;25331;-63
2023/10/21 07:22:53;;;;;;;14.90;5.60;;;;;;;24.13;47.76;100813.26;106703;1259;22912;-62
2023/10/21 07:25:20;;;;;;;16.90;6.00;;;;;;;24.19;47.96;100815.73;106764;1260;25356;-62
2023/10/21 07:27:47;;;;;;;17.60;5.70;;;;;;;24.19;48.18;100811.34;106395;1270;25357;-62
2023/10/21 07:30:15;;;;;;;20.40;6.50;;;;;;;24.22;48.45;100813.95;106479;1258;25498;-62
2023/10/21 07:32:42;;;;;;;15.60;6.20;;;;;;;24.27;48.98;100819.27;106212;1272;25420;-62
2023/10/21 07:35:09;;;;;;;16.10;5.50;;;;;;;24.31;49.89;100823.42;106178;1258;25507;-63
2023/10/21 07:37:37;;;;;;;10.40;5.20;;;;;;;24.20;51.21;100823.88;106394;1264;22549;-61
2023/10/21 07:40:06;;;;;;;14.30;5.40;;;;;;;24.23;52.06;100821.87;106489;1269;25427;-63
2023/10/21 07:42:33;;;;;;;12.10;5.30;;;;;;;24.22;52.51;100822.80;106471;1260;25418;-61
2023/10/21 07:45:00;;;;;;;10.50;4.70;;;;;;;24.25;52.98;100825.80;106503;1260;25428;-61
2023/10/21 07:47:27;;;;;;;13.60;5.70;;;;;;;24.29;53.21;100823.92;106407;1264;25396;-62
2023/10/21 07:49:55;;;;;;;18.10;5.00;;;;;;;24.37;53.15;100827.85;106707;1262;25536;-62
2023/10/21 07:52:22;;;;;;;13.60;5.10;;;;;;;24.42;53.08;100828.92;106597;1259;25382;-61
2023/10/21 07:54:49;;;;;;;13.10;5.20;;;;;;;24.46;53.51;100832.85;106728;1262;25511;-61
2023/10/21 07:57:17;;;;;;;11.60;5.10;;;;;;;24.49;53.74;100835.13;106829;1262;23317;-61
2023/10/21 07:59:44;;;;;;;15.70;5.60;;;;;;;24.64;53.47;100833.35;106628;1260;25427;-61
2023/10/21 08:02:13;;;;;;;15.30;5.40;;;;;;;24.81;52.82;100837.34;106746;1260;22653;-62
2023/10/21 08:04:40;;;;;;;20.00;6.30;;;;;;;24.64;53.40;100841.70;106663;1276;22560;-61
2023/10/21 08:07:07;;;;;;;10.50;5.20;;;;;;;24.61;53.34;100848.20;106344;1280;25347;-62
2023/10/21 08:09:36;;;;;;;11.60;5.10;;;;;;;24.63;53.25;100848.52;106771;1262;25508;-61
2023/10/21 08:12:03;;;;;;;13.20;4.40;;;;;;;24.65;53.18;100846.59;106823;1259;26513;-61
2023/10/21 08:14:31;;;;;;;12.80;5.00;;;;;;;24.66;53.13;100847.41;106777;1257;22558;-61
2023/10/21 08:17:00;;;;;;;9.90;4.60;;;;;;;24.67;52.94;100850.36;106542;1258;25494;-61
2023/10/21 08:19:29;;;;;;;9.40;4.40;;;;;;;24.65;52.97;100863.94;106715;1269;22553;-62
2023/10/21 08:21:57;;;;;;;11.20;4.60;;;;;;;24.62;53.14;100865.29;106665;1261;25347;-62
2023/10/21 08:24:24;;;;;;;12.40;4.60;;;;;;;24.64;53.03;100866.56;106884;1259;25469;-61
2023/10/21 08:26:51;;;;;;;9.20;4.60;;;;;;;24.68;53.02;100862.83;106179;1281;25361;-61
2023/10/21 08:29:20;;;;;;;11.90;4.50;;;;;;;24.75;52.79;100860.04;106879;1262;23533;-63
2023/10/21 08:31:47;;;;;;;9.30;4.50;;;;;;;24.78;52.58;100855.01;106543;1262;25714;-70
2023/10/21 08:34:14;;;;;;;9.60;4.10;;;;;;;24.80;52.40;100847.04;106733;1259;25497;-69
2023/10/21 08:36:41;;;;;;;10.60;4.70;;;;;;;24.81;52.24;100844.93;106602;1259;25357;-70
2023/10/21 08:39:09;;;;;;;10.00;4.40;;;;;;;24.84;52.14;100849.73;106336;1271;25435;-70
2023/10/21 08:41:39;;;;;;;15.90;5.10;;;;;;;24.86;52.06;100855.03;106523;1268;25358;-70
2023/10/21 08:44:07;;;;;;;14.40;5.30;;;;;;;24.89;52.04;100851.20;106732;1262;25358;-69
2023/10/21 08:46:37;;;;;;;14.70;5.00;;;;;;;24.92;51.79;100851.18;106982;1256;25405;-71
2023/10/21 08:49:05;;;;;;;7.60;3.40;;;;;;;24.95;51.60;100850.59;107147;1260;25484;-67
2023/10/21 08:51:33;;;;;;;8.40;4.20;;;;;;;24.98;51.41;100851.07;106975;1259;22576;-66
2023/10/21 08:54:03;;;;;;;10.30;4.30;;;;;;;25.00;51.15;100857.77;106619;1271;22558;-65
2023/10/21 08:56:30;;;;;;;8.20;4.40;;;;;;;25.04;50.85;100864.05;107086;1264;24510;-67
2023/10/21 08:58:58;;;;;;;12.20;4.90;;;;;;;25.06;50.83;100864.96;106814;1259;22545;-66
2023/10/21 09:01:24;;;;;;;10.00;4.40;;;;;;;25.05;51.19;100865.94;106670;1262;25344;-66
2023/10/21 09:03:52;;;;;;;11.70;4.60;;;;;;;25.04;51.37;100867.23;106489;1276;22530;-66
2023/10/21 09:06:19;;;;;;;11.20;4.00;;;;;;;25.03;51.56;100869.59;106591;1277;25395;-66
2023/10/21 09:08:47;;;;;;;8.90;4.90;;;;;;;25.06;51.46;100870.30;107104;1259;25443;-67
2023/10/21 09:11:20;;;;;;;15.30;4.90;;;;;;;25.15;51.41;100866.39;106914;1262;24357;-66
2023/10/21 09:13:48;;;;;;;9.70;4.90;;;;;;;25.23;51.14;100861.11;106829;1260;25423;-67
2023/10/21 09:16:20;;;;;;;11.90;5.10;;;;;;;25.27;50.84;100857.06;106866;1260;24226;-65
2023/10/21 09:18:57;;;;;;;14.60;4.80;;;;;;;25.31;50.65;100856.29;106790;1259;25441;-67
2023/10/21 09:21:34;;;;;;;13.60;5.40;;;;;;;25.38;50.67;100857.20;106827;1265;25364;-66
2023/10/21 09:24:02;;;;;;;16.10;4.50;;;;;;;25.44;50.59;100856.14;106885;1265;25479;-66
2023/10/21 09:26:34;;;;;;;10.40;3.90;;;;;;;25.50;50.21;100858.30;106824;1260;25438;-68
2023/10/21 09:29:06;;;;;;;12.40;4.10;;;;;;;25.56;50.18;100857.84;106708;1268;24233;-67
2023/10/21 09:31:53;;;;;;;9.00;4.20;;;;;;;25.61;50.39;100860.58;106570;1262;23329;-67
2023/10/21 09:34:29;;;;;;;12.00;4.90;;;;;;;25.66;50.31;100857.54;106362;1267;25534;-67
2023/10/21 09:37:01;;;;;;;10.90;4.60;;;;;;;25.68;50.36;100852.20;106694;1260;24460;-67
2023/10/21 09:39:40;;;;;;;11.50;4.80;;;;;;;25.69;50.16;100852.27;106280;1262;22866;-67
2023/10/21 09:42:08;;;;;;;8.90;4.70;;;;;;;25.71;50.13;100848.60;106516;1262;25386;-67
2023/10/21 09:44:36;;;;;;;11.30;4.20;;;;;;;25.71;50.16;100849.30;107125;1260;25507;-65
2023/10/21 09:47:07;;;;;;;12.10;5.20;;;;;;;25.70;50.11;100845.63;106832;1262;25347;-66
2023/10/21 09:49:39;;;;;;;11.00;5.20;;;;;;;25.69;49.98;100847.83;106290;1266;1003332;-66
2023/10/21 09:52:15;;;;;;;12.00;4.20;;;;;;;25.69;49.93;100843.23;106555;1268;22527;-66
2023/10/21 09:54:44;;;;;;;15.20;4.60;;;;;;;25.67;50.12;100844.25;106637;1265;25405;-66
2023/10/21 09:57:12;;;;;;;10.60;4.70;;;;;;;25.67;50.19;100844.08;107273;1259;22522;-65
2023/10/21 09:59:39;;;;;;;13.10;4.60;;;;;;;25.67;50.08;100847.28;107305;1259;24311;-66
2023/10/21 10:02:07;;;;;;;13.00;4.80;;;;;;;25.69;50.09;100848.58;107091;1262;22540;-66
2023/10/21 10:04:35;;;;;;;10.40;4.70;;;;;;;25.72;49.98;100845.33;106740;1266;23134;-64
2023/10/21 10:07:06;;;;;;;11.50;4.10;;;;;;;25.72;49.87;100842.41;107410;1259;23208;-66
2023/10/21 10:09:39;;;;;;;11.70;4.40;;;;;;;25.74;49.80;100841.17;106608;1264;25386;-67
2023/10/21 10:12:16;;;;;;;14.40;4.60;;;;;;;25.77;49.71;100843.27;107679;1260;25438;-66
2023/10/21 10:14:43;;;;;;;11.60;5.20;;;;;;;25.80;49.65;100840.36;107062;1261;22526;-65
2023/10/21 10:17:13;;;;;;;13.20;5.30;;;;;;;25.82;49.69;100840.16;107266;1262;23337;-66
2023/10/21 10:19:43;;;;;;;10.80;5.10;;;;;;;25.86;49.85;100845.40;107442;1265;22541;-67
2023/10/21 10:22:21;;;;;;;11.20;4.90;;;;;;;25.90;49.87;100834.42;107302;1272;22560;-65
2023/10/21 10:24:55;;;;;;;14.00;5.10;;;;;;;25.94;50.05;100834.23;107027;1257;25464;-66
2023/10/21 10:27:37;;;;;;;10.70;4.70;;;;;;;25.93;50.17;100834.34;107119;1260;22547;-66
2023/10/21 10:30:19;;;;;;;10.50;4.80;;;;;;;25.96;50.24;100834.44;107335;1268;25308;-66
2023/10/21 10:32:50;;;;;;;11.50;5.00;;;;;;;25.99;50.19;100828.45;106980;1272;22531;-66
2023/10/21 10:35:30;;;;;;;10.00;4.70;;;;;;;26.04;50.17;100826.28;106553;1260;25466;-65
2023/10/21 10:38:01;;;;;;;10.20;5.00;;;;;;;26.08;50.02;100822.19;106964;1265;22617;-66
2023/10/21 10:40:36;;;;;;;8.00;3.90;;;;;;;26.13;50.01;100823.36;107005;1268;22553;-65
2023/10/21 10:43:05;;;;;;;15.30;4.70;;;;;;;26.18;49.76;100824.39;106881;1262;25441;-66
2023/10/21 10:45:33;;;;;;;8.40;4.20;;;;;;;26.22;49.66;100816.22;106881;1256;23878;-67
2023/10/21 10:48:02;;;;;;;12.60;4.70;;;;;;;26.26;49.58;100823.30;107292;1265;25358;-66
2023/10/21 10:50:36;;;;;;;12.00;5.10;;;;;;;26.31;49.36;100825.94;106763;1264;24226;-65
2023/10/21 10:53:13;;;;;;;11.50;4.80;;;;;;;26.34;49.18;100827.64;106968;1262;25368;-66
2023/10/21 10:55:43;;;;;;;14.00;4.60;;;;;;;26.36;49.28;100831.13;107493;1262;25392;-65
2023/10/21 10:58:11;;;;;;;9.50;5.00;;;;;;;26.37;49.41;100832.43;107235;1259;22531;-67
2023/10/21 11:00:41;;;;;;;12.10;4.90;;;;;;;26.39;49.50;100832.80;107415;1261;24268;-67
2023/10/21 11:03:08;;;;;;;10.70;4.50;;;;;;;26.42;49.19;100834.92;107450;1256;23365;-67
2023/10/21 11:05:40;;;;;;;10.50;4.30;;;;;;;26.40;49.03;100833.95;107081;1265;22612;-68
2023/10/21 11:08:09;;;;;;;9.90;4.70;;;;;;;26.41;48.80;100838.37;107015;1262;22757;-67
2023/10/21 11:10:37;;;;;;;13.40;5.40;;;;;;;26.42;48.73;100842.56;106843;1264;24233;-67
2023/10/21 11:13:05;;;;;;;8.50;4.40;;;;;;;26.43;48.77;100839.43;106919;1262;24252;-67
2023/10/21 11:15:32;;;;;;;15.70;6.10;;;;;;;26.45;48.93;100840.64;106691;1267;22645;-69